sensor_id;sensor_type;location;lat;lon;timestamp;P1;durP1;ratioP1;P2;durP2;ratioP2
75408;SDS011;63979;55.644;37.734;2023-04-09T00:03:23;15.80;;;8.68;;
75408;SDS011;63979;55.644;37.734;2023-04-09T00:08:24;11.65;;;8.07;;
75408;SDS011;63979;55.644;37.734;2023-04-09T00:13:26;15.68;;;8.38;;
75408;SDS011;63979;55.644;37.734;2023-04-09T00:18:27;14.25;;;8.38;;
75408;SDS011;63979;55.644;37.734;2023-04-09T00:23:28;17.67;;;8.88;;
75408;SDS011;63979;55.644;37.734;2023-04-09T00:28:29;13.15;;;8.73;;
75408;SDS011;63979;55.644;37.734;2023-04-09T00:33:30;12.73;;;8.98;;
75408;SDS011;63979;55.644;37.734;2023-04-09T00:38:31;17.92;;;9.55;;
75408;SDS011;63979;55.644;37.734;2023-04-09T00:43:32;16.23;;;9.65;;
75408;SDS011;63979;55.644;37.734;2023-04-09T00:48:33;14.63;;;9.48;;
75408;SDS011;63979;55.644;37.734;2023-04-09T00:53:35;14.35;;;9.25;;
75408;SDS011;63979;55.644;37.734;2023-04-09T00:58:36;17.77;;;9.85;;
75408;SDS011;63979;55.644;37.734;2023-04-09T01:03:37;20.83;;;10.55;;
75408;SDS011;63979;55.644;37.734;2023-04-09T01:19:00;18.25;;;11.55;;
75408;SDS011;63979;55.644;37.734;2023-04-09T01:24:20;21.52;;;12.52;;
75408;SDS011;63979;55.644;37.734;2023-04-09T01:29:26;24.27;;;12.10;;
75408;SDS011;63979;55.644;37.734;2023-04-09T01:34:34;21.75;;;11.30;;
75408;SDS011;63979;55.644;37.734;2023-04-09T01:39:36;19.75;;;11.73;;
75408;SDS011;63979;55.644;37.734;2023-04-09T01:44:38;15.90;;;10.57;;
75408;SDS011;63979;55.644;37.734;2023-04-09T01:49:40;18.48;;;11.00;;
75408;SDS011;63979;55.644;37.734;2023-04-09T01:54:43;17.85;;;11.10;;
75408;SDS011;63979;55.644;37.734;2023-04-09T01:59:44;18.25;;;10.48;;
75408;SDS011;63979;55.644;37.734;2023-04-09T02:04:46;19.98;;;10.55;;
75408;SDS011;63979;55.644;37.734;2023-04-09T02:09:48;18.17;;;10.05;;
75408;SDS011;63979;55.644;37.734;2023-04-09T02:14:53;20.58;;;12.13;;
75408;SDS011;63979;55.644;37.734;2023-04-09T02:19:54;22.55;;;11.13;;
75408;SDS011;63979;55.644;37.734;2023-04-09T02:24:56;20.08;;;11.82;;
75408;SDS011;63979;55.644;37.734;2023-04-09T02:29:57;21.85;;;10.93;;
75408;SDS011;63979;55.644;37.734;2023-04-09T02:34:58;14.40;;;10.60;;
75408;SDS011;63979;55.644;37.734;2023-04-09T02:39:59;18.10;;;10.63;;
75408;SDS011;63979;55.644;37.734;2023-04-09T02:45:00;16.15;;;10.32;;
75408;SDS011;63979;55.644;37.734;2023-04-09T02:50:01;17.80;;;9.68;;
75408;SDS011;63979;55.644;37.734;2023-04-09T02:55:02;20.80;;;10.48;;
75408;SDS011;63979;55.644;37.734;2023-04-09T03:00:04;18.77;;;10.40;;
75408;SDS011;63979;55.644;37.734;2023-04-09T03:05:05;19.70;;;10.60;;
75408;SDS011;63979;55.644;37.734;2023-04-09T03:10:07;20.65;;;10.00;;
75408;SDS011;63979;55.644;37.734;2023-04-09T03:15:09;17.98;;;10.45;;
75408;SDS011;63979;55.644;37.734;2023-04-09T03:20:10;19.15;;;11.27;;
75408;SDS011;63979;55.644;37.734;2023-04-09T03:25:11;16.88;;;10.52;;
75408;SDS011;63979;55.644;37.734;2023-04-09T03:30:13;22.65;;;9.95;;
75408;SDS011;63979;55.644;37.734;2023-04-09T03:35:14;20.15;;;10.93;;
75408;SDS011;63979;55.644;37.734;2023-04-09T03:40:16;18.63;;;10.93;;
75408;SDS011;63979;55.644;37.734;2023-04-09T03:45:17;19.92;;;11.65;;
75408;SDS011;63979;55.644;37.734;2023-04-09T03:50:18;19.35;;;10.63;;
75408;SDS011;63979;55.644;37.734;2023-04-09T03:55:19;17.83;;;10.10;;
75408;SDS011;63979;55.644;37.734;2023-04-09T04:00:20;18.67;;;10.63;;
75408;SDS011;63979;55.644;37.734;2023-04-09T04:05:22;22.63;;;11.88;;
75408;SDS011;63979;55.644;37.734;2023-04-09T04:10:25;21.42;;;11.73;;
75408;SDS011;63979;55.644;37.734;2023-04-09T04:15:26;19.08;;;11.55;;
75408;SDS011;63979;55.644;37.734;2023-04-09T04:20:28;23.92;;;11.57;;
75408;SDS011;63979;55.644;37.734;2023-04-09T04:25:30;19.25;;;10.93;;
75408;SDS011;63979;55.644;37.734;2023-04-09T04:30:31;21.70;;;11.95;;
75408;SDS011;63979;55.644;37.734;2023-04-09T04:35:32;25.77;;;12.85;;
75408;SDS011;63979;55.644;37.734;2023-04-09T04:40:33;21.95;;;13.10;;
75408;SDS011;63979;55.644;37.734;2023-04-09T04:45:34;21.30;;;12.38;;
75408;SDS011;63979;55.644;37.734;2023-04-09T04:50:35;21.98;;;12.93;;
75408;SDS011;63979;55.644;37.734;2023-04-09T04:55:36;20.67;;;12.73;;
75408;SDS011;63979;55.644;37.734;2023-04-09T05:05:40;20.77;;;13.02;;
75408;SDS011;63979;55.644;37.734;2023-04-09T05:10:41;27.23;;;14.23;;
75408;SDS011;63979;55.644;37.734;2023-04-09T05:15:43;21.30;;;12.80;;
75408;SDS011;63979;55.644;37.734;2023-04-09T05:20:45;24.92;;;14.07;;
75408;SDS011;63979;55.644;37.734;2023-04-09T05:25:49;19.95;;;13.70;;
75408;SDS011;63979;55.644;37.734;2023-04-09T05:30:50;27.45;;;13.52;;
75408;SDS011;63979;55.644;37.734;2023-04-09T05:35:51;18.65;;;12.90;;
75408;SDS011;63979;55.644;37.734;2023-04-09T05:40:53;22.65;;;13.45;;
75408;SDS011;63979;55.644;37.734;2023-04-09T05:45:54;29.23;;;13.63;;
75408;SDS011;63979;55.644;37.734;2023-04-09T05:50:55;20.10;;;14.27;;
75408;SDS011;63979;55.644;37.734;2023-04-09T05:55:56;25.35;;;12.98;;
75408;SDS011;63979;55.644;37.734;2023-04-09T06:01:00;22.45;;;12.80;;
75408;SDS011;63979;55.644;37.734;2023-04-09T06:11:02;24.85;;;14.13;;
75408;SDS011;63979;55.644;37.734;2023-04-09T06:16:04;26.48;;;13.77;;
75408;SDS011;63979;55.644;37.734;2023-04-09T06:21:07;19.92;;;13.80;;
75408;SDS011;63979;55.644;37.734;2023-04-09T06:26:08;24.83;;;13.98;;
75408;SDS011;63979;55.644;37.734;2023-04-09T06:31:10;19.55;;;12.02;;
75408;SDS011;63979;55.644;37.734;2023-04-09T06:36:11;23.08;;;12.73;;
75408;SDS011;63979;55.644;37.734;2023-04-09T06:41:12;32.67;;;13.98;;
75408;SDS011;63979;55.644;37.734;2023-04-09T06:46:14;19.92;;;12.48;;
75408;SDS011;63979;55.644;37.734;2023-04-09T06:51:16;19.00;;;12.63;;
75408;SDS011;63979;55.644;37.734;2023-04-09T06:56:17;20.02;;;12.30;;
75408;SDS011;63979;55.644;37.734;2023-04-09T07:06:19;23.80;;;12.10;;
75408;SDS011;63979;55.644;37.734;2023-04-09T07:11:20;17.90;;;11.77;;
75408;SDS011;63979;55.644;37.734;2023-04-09T07:21:22;17.25;;;11.55;;
75408;SDS011;63979;55.644;37.734;2023-04-09T07:26:23;13.00;;;10.10;;
75408;SDS011;63979;55.644;37.734;2023-04-09T07:31:24;17.77;;;11.60;;
75408;SDS011;63979;55.644;37.734;2023-04-09T07:36:26;20.05;;;11.82;;
75408;SDS011;63979;55.644;37.734;2023-04-09T07:46:28;18.98;;;11.10;;
75408;SDS011;63979;55.644;37.734;2023-04-09T07:56:30;16.17;;;9.93;;
75408;SDS011;63979;55.644;37.734;2023-04-09T08:01:31;11.23;;;7.88;;
75408;SDS011;63979;55.644;37.734;2023-04-09T08:06:32;14.93;;;9.57;;
75408;SDS011;63979;55.644;37.734;2023-04-09T08:11:34;12.18;;;9.25;;
75408;SDS011;63979;55.644;37.734;2023-04-09T08:16:35;13.95;;;9.55;;
75408;SDS011;63979;55.644;37.734;2023-04-09T08:21:36;13.23;;;9.63;;
75408;SDS011;63979;55.644;37.734;2023-04-09T08:26:38;10.13;;;8.43;;
75408;SDS011;63979;55.644;37.734;2023-04-09T08:31:40;14.43;;;9.10;;
75408;SDS011;63979;55.644;37.734;2023-04-09T08:36:44;12.77;;;8.27;;
75408;SDS011;63979;55.644;37.734;2023-04-09T08:41:46;13.30;;;9.80;;
75408;SDS011;63979;55.644;37.734;2023-04-09T08:46:47;13.38;;;8.60;;
75408;SDS011;63979;55.644;37.734;2023-04-09T08:51:49;11.73;;;8.40;;
75408;SDS011;63979;55.644;37.734;2023-04-09T08:56:50;15.25;;;9.23;;
75408;SDS011;63979;55.644;37.734;2023-04-09T09:02:12;11.73;;;7.70;;
75408;SDS011;63979;55.644;37.734;2023-04-09T09:07:12;10.98;;;7.68;;
75408;SDS011;63979;55.644;37.734;2023-04-09T09:12:28;10.68;;;7.43;;
75408;SDS011;63979;55.644;37.734;2023-04-09T09:17:33;14.10;;;8.93;;
75408;SDS011;63979;55.644;37.734;2023-04-09T09:22:56;11.38;;;7.75;;
75408;SDS011;63979;55.644;37.734;2023-04-09T09:28:05;10.40;;;7.30;;
75408;SDS011;63979;55.644;37.734;2023-04-09T09:33:08;12.98;;;7.43;;
75408;SDS011;63979;55.644;37.734;2023-04-09T09:38:10;9.20;;;8.07;;
75408;SDS011;63979;55.644;37.734;2023-04-09T09:43:12;10.43;;;7.80;;
75408;SDS011;63979;55.644;37.734;2023-04-09T09:48:14;11.90;;;8.10;;
75408;SDS011;63979;55.644;37.734;2023-04-09T09:53:15;10.35;;;8.40;;
75408;SDS011;63979;55.644;37.734;2023-04-09T09:58:23;12.85;;;8.40;;
75408;SDS011;63979;55.644;37.734;2023-04-09T10:03:31;10.88;;;8.43;;
75408;SDS011;63979;55.644;37.734;2023-04-09T10:08:37;10.02;;;8.50;;
75408;SDS011;63979;55.644;37.734;2023-04-09T10:13:42;11.82;;;9.32;;
75408;SDS011;63979;55.644;37.734;2023-04-09T10:18:49;10.77;;;8.82;;
75408;SDS011;63979;55.644;37.734;2023-04-09T10:23:51;16.02;;;8.32;;
75408;SDS011;63979;55.644;37.734;2023-04-09T10:29:06;14.68;;;8.95;;
75408;SDS011;63979;55.644;37.734;2023-04-09T10:34:09;12.13;;;8.20;;
75408;SDS011;63979;55.644;37.734;2023-04-09T10:39:10;13.48;;;7.88;;
75408;SDS011;63979;55.644;37.734;2023-04-09T10:44:20;11.45;;;8.25;;
75408;SDS011;63979;55.644;37.734;2023-04-09T10:49:23;12.25;;;9.75;;
75408;SDS011;63979;55.644;37.734;2023-04-09T10:59:37;15.05;;;8.90;;
75408;SDS011;63979;55.644;37.734;2023-04-09T11:05:00;15.82;;;9.43;;
75408;SDS011;63979;55.644;37.734;2023-04-09T11:10:05;13.85;;;8.43;;
75408;SDS011;63979;55.644;37.734;2023-04-09T11:15:14;12.50;;;8.15;;
75408;SDS011;63979;55.644;37.734;2023-04-09T11:20:19;11.82;;;8.45;;
75408;SDS011;63979;55.644;37.734;2023-04-09T11:25:23;11.30;;;8.88;;
75408;SDS011;63979;55.644;37.734;2023-04-09T11:30:25;9.60;;;8.48;;
75408;SDS011;63979;55.644;37.734;2023-04-09T11:35:28;14.90;;;8.85;;
75408;SDS011;63979;55.644;37.734;2023-04-09T11:40:29;12.05;;;8.68;;
75408;SDS011;63979;55.644;37.734;2023-04-09T11:45:31;9.45;;;7.95;;
75408;SDS011;63979;55.644;37.734;2023-04-09T11:50:32;12.90;;;8.70;;
75408;SDS011;63979;55.644;37.734;2023-04-09T11:55:33;9.77;;;7.88;;
75408;SDS011;63979;55.644;37.734;2023-04-09T12:00:34;11.32;;;9.00;;
75408;SDS011;63979;55.644;37.734;2023-04-09T12:05:43;8.50;;;6.78;;
75408;SDS011;63979;55.644;37.734;2023-04-09T12:10:46;15.88;;;10.45;;
75408;SDS011;63979;55.644;37.734;2023-04-09T12:15:47;9.65;;;7.47;;
75408;SDS011;63979;55.644;37.734;2023-04-09T12:20:49;9.60;;;7.25;;
75408;SDS011;63979;55.644;37.734;2023-04-09T12:30:51;9.75;;;6.78;;
75408;SDS011;63979;55.644;37.734;2023-04-09T12:40:53;11.73;;;7.78;;
75408;SDS011;63979;55.644;37.734;2023-04-09T12:45:54;11.80;;;7.93;;
75408;SDS011;63979;55.644;37.734;2023-04-09T12:51:15;9.98;;;7.40;;
75408;SDS011;63979;55.644;37.734;2023-04-09T12:56:36;14.20;;;6.88;;
75408;SDS011;63979;55.644;37.734;2023-04-09T13:01:36;11.55;;;7.82;;
75408;SDS011;63979;55.644;37.734;2023-04-09T13:06:40;10.57;;;7.18;;
75408;SDS011;63979;55.644;37.734;2023-04-09T13:11:41;10.80;;;8.40;;
75408;SDS011;63979;55.644;37.734;2023-04-09T13:16:42;12.85;;;8.15;;
75408;SDS011;63979;55.644;37.734;2023-04-09T13:21:43;11.80;;;7.65;;
75408;SDS011;63979;55.644;37.734;2023-04-09T13:27:06;9.82;;;6.03;;
75408;SDS011;63979;55.644;37.734;2023-04-09T13:32:13;10.27;;;7.22;;
75408;SDS011;63979;55.644;37.734;2023-04-09T13:42:16;13.07;;;7.10;;
75408;SDS011;63979;55.644;37.734;2023-04-09T13:47:36;16.00;;;7.10;;
75408;SDS011;63979;55.644;37.734;2023-04-09T13:52:56;9.43;;;6.75;;
75408;SDS011;63979;55.644;37.734;2023-04-09T13:58:15;13.82;;;8.00;;
75408;SDS011;63979;55.644;37.734;2023-04-09T14:03:16;10.25;;;6.82;;
75408;SDS011;63979;55.644;37.734;2023-04-09T14:08:17;11.80;;;7.63;;
75408;SDS011;63979;55.644;37.734;2023-04-09T14:13:18;12.90;;;7.85;;
75408;SDS011;63979;55.644;37.734;2023-04-09T14:18:19;11.85;;;7.57;;
75408;SDS011;63979;55.644;37.734;2023-04-09T14:23:20;13.55;;;7.97;;
75408;SDS011;63979;55.644;37.734;2023-04-09T14:28:21;14.00;;;8.25;;
75408;SDS011;63979;55.644;37.734;2023-04-09T15:11:09;15.27;;;9.40;;
75408;SDS011;63979;55.644;37.734;2023-04-09T15:16:19;12.82;;;8.38;;
75408;SDS011;63979;55.644;37.734;2023-04-09T15:21:21;15.15;;;7.60;;
75408;SDS011;63979;55.644;37.734;2023-04-09T15:26:24;10.85;;;8.50;;
75408;SDS011;63979;55.644;37.734;2023-04-09T15:31:26;17.50;;;8.65;;
75408;SDS011;63979;55.644;37.734;2023-04-09T15:36:27;14.27;;;7.38;;
75408;SDS011;63979;55.644;37.734;2023-04-09T15:41:30;16.45;;;8.25;;
75408;SDS011;63979;55.644;37.734;2023-04-09T15:46:33;13.30;;;8.38;;
75408;SDS011;63979;55.644;37.734;2023-04-09T15:51:34;12.65;;;7.45;;
75408;SDS011;63979;55.644;37.734;2023-04-09T15:56:35;13.07;;;7.88;;
75408;SDS011;63979;55.644;37.734;2023-04-09T16:01:39;8.57;;;7.20;;
75408;SDS011;63979;55.644;37.734;2023-04-09T16:06:39;16.77;;;9.05;;
75408;SDS011;63979;55.644;37.734;2023-04-09T16:11:41;12.00;;;8.45;;
75408;SDS011;63979;55.644;37.734;2023-04-09T16:16:42;10.60;;;8.30;;
75408;SDS011;63979;55.644;37.734;2023-04-09T16:21:46;14.25;;;9.60;;
75408;SDS011;63979;55.644;37.734;2023-04-09T16:26:48;17.83;;;9.90;;
75408;SDS011;63979;55.644;37.734;2023-04-09T16:31:49;16.35;;;8.52;;
75408;SDS011;63979;55.644;37.734;2023-04-09T16:36:52;16.10;;;9.30;;
75408;SDS011;63979;55.644;37.734;2023-04-09T16:41:53;13.98;;;9.10;;
75408;SDS011;63979;55.644;37.734;2023-04-09T16:46:54;13.90;;;9.23;;
75408;SDS011;63979;55.644;37.734;2023-04-09T16:51:56;13.05;;;8.35;;
75408;SDS011;63979;55.644;37.734;2023-04-09T16:56:57;16.60;;;8.93;;
75408;SDS011;63979;55.644;37.734;2023-04-09T17:01:58;14.48;;;9.52;;
75408;SDS011;63979;55.644;37.734;2023-04-09T17:06:59;18.75;;;10.07;;
75408;SDS011;63979;55.644;37.734;2023-04-09T17:12:00;14.55;;;9.40;;
75408;SDS011;63979;55.644;37.734;2023-04-09T17:17:01;14.75;;;9.50;;
75408;SDS011;63979;55.644;37.734;2023-04-09T17:22:03;17.83;;;10.10;;
75408;SDS011;63979;55.644;37.734;2023-04-09T17:27:05;12.15;;;9.35;;
75408;SDS011;63979;55.644;37.734;2023-04-09T17:32:06;13.27;;;9.32;;
75408;SDS011;63979;55.644;37.734;2023-04-09T17:37:07;21.08;;;9.98;;
75408;SDS011;63979;55.644;37.734;2023-04-09T17:42:08;16.38;;;9.18;;
75408;SDS011;63979;55.644;37.734;2023-04-09T17:47:11;17.60;;;8.95;;
75408;SDS011;63979;55.644;37.734;2023-04-09T17:52:13;14.85;;;8.52;;
75408;SDS011;63979;55.644;37.734;2023-04-09T17:57:14;15.77;;;9.63;;
75408;SDS011;63979;55.644;37.734;2023-04-09T18:02:15;12.57;;;8.57;;
75408;SDS011;63979;55.644;37.734;2023-04-09T18:07:16;15.63;;;9.25;;
75408;SDS011;63979;55.644;37.734;2023-04-09T18:12:17;15.18;;;8.77;;
75408;SDS011;63979;55.644;37.734;2023-04-09T18:17:19;13.57;;;8.25;;
75408;SDS011;63979;55.644;37.734;2023-04-09T18:22:20;11.77;;;7.55;;
75408;SDS011;63979;55.644;37.734;2023-04-09T18:27:22;12.10;;;7.95;;
75408;SDS011;63979;55.644;37.734;2023-04-09T18:32:23;12.90;;;6.75;;
75408;SDS011;63979;55.644;37.734;2023-04-09T18:37:25;11.88;;;6.55;;
75408;SDS011;63979;55.644;37.734;2023-04-09T18:42:26;11.50;;;6.97;;
75408;SDS011;63979;55.644;37.734;2023-04-09T18:47:28;9.43;;;6.75;;
75408;SDS011;63979;55.644;37.734;2023-04-09T18:52:29;9.88;;;7.28;;
75408;SDS011;63979;55.644;37.734;2023-04-09T18:57:30;10.50;;;6.40;;
75408;SDS011;63979;55.644;37.734;2023-04-09T19:02:32;9.13;;;6.25;;
75408;SDS011;63979;55.644;37.734;2023-04-09T19:07:33;12.18;;;6.95;;
75408;SDS011;63979;55.644;37.734;2023-04-09T19:12:36;10.93;;;7.07;;
75408;SDS011;63979;55.644;37.734;2023-04-09T19:17:37;8.93;;;6.72;;
75408;SDS011;63979;55.644;37.734;2023-04-09T19:22:38;15.48;;;7.38;;
75408;SDS011;63979;55.644;37.734;2023-04-09T19:27:39;17.88;;;7.25;;
75408;SDS011;63979;55.644;37.734;2023-04-09T19:32:40;12.27;;;7.13;;
75408;SDS011;63979;55.644;37.734;2023-04-09T19:37:41;12.10;;;6.93;;
75408;SDS011;63979;55.644;37.734;2023-04-09T19:42:42;15.75;;;7.40;;
75408;SDS011;63979;55.644;37.734;2023-04-09T19:47:43;19.90;;;7.80;;
75408;SDS011;63979;55.644;37.734;2023-04-09T19:52:44;13.25;;;7.78;;
75408;SDS011;63979;55.644;37.734;2023-04-09T19:57:45;14.93;;;8.48;;
75408;SDS011;63979;55.644;37.734;2023-04-09T20:02:46;13.48;;;7.38;;
75408;SDS011;63979;55.644;37.734;2023-04-09T20:07:48;11.38;;;6.55;;
75408;SDS011;63979;55.644;37.734;2023-04-09T20:12:50;17.10;;;8.00;;
75408;SDS011;63979;55.644;37.734;2023-04-09T20:17:52;14.57;;;7.70;;
75408;SDS011;63979;55.644;37.734;2023-04-09T20:22:52;16.80;;;7.72;;
75408;SDS011;63979;55.644;37.734;2023-04-09T20:27:53;10.90;;;7.18;;
75408;SDS011;63979;55.644;37.734;2023-04-09T20:32:55;15.32;;;8.38;;
75408;SDS011;63979;55.644;37.734;2023-04-09T20:37:56;14.80;;;8.05;;
75408;SDS011;63979;55.644;37.734;2023-04-09T20:42:57;28.80;;;11.98;;
75408;SDS011;63979;55.644;37.734;2023-04-09T20:47:58;15.38;;;9.18;;
75408;SDS011;63979;55.644;37.734;2023-04-09T20:53:00;15.68;;;8.93;;
75408;SDS011;63979;55.644;37.734;2023-04-09T20:58:01;15.02;;;8.35;;
75408;SDS011;63979;55.644;37.734;2023-04-09T21:03:03;12.70;;;8.50;;
75408;SDS011;63979;55.644;37.734;2023-04-09T21:08:04;12.68;;;8.25;;
75408;SDS011;63979;55.644;37.734;2023-04-09T21:13:05;13.55;;;7.75;;
75408;SDS011;63979;55.644;37.734;2023-04-09T21:18:06;14.10;;;7.80;;
75408;SDS011;63979;55.644;37.734;2023-04-09T21:23:07;12.23;;;7.38;;
75408;SDS011;63979;55.644;37.734;2023-04-09T21:28:08;14.93;;;7.63;;
75408;SDS011;63979;55.644;37.734;2023-04-09T21:33:08;17.90;;;8.13;;
75408;SDS011;63979;55.644;37.734;2023-04-09T21:38:10;11.23;;;7.50;;
75408;SDS011;63979;55.644;37.734;2023-04-09T21:43:11;15.90;;;8.13;;
75408;SDS011;63979;55.644;37.734;2023-04-09T21:48:12;10.88;;;7.88;;
75408;SDS011;63979;55.644;37.734;2023-04-09T21:53:13;15.18;;;8.93;;
75408;SDS011;63979;55.644;37.734;2023-04-09T21:58:15;15.18;;;7.60;;
75408;SDS011;63979;55.644;37.734;2023-04-09T22:03:16;21.45;;;10.15;;
75408;SDS011;63979;55.644;37.734;2023-04-09T22:08:17;11.52;;;7.55;;
75408;SDS011;63979;55.644;37.734;2023-04-09T22:13:18;13.52;;;7.97;;
75408;SDS011;63979;55.644;37.734;2023-04-09T22:18:19;16.55;;;9.07;;
75408;SDS011;63979;55.644;37.734;2023-04-09T22:23:20;14.02;;;7.88;;
75408;SDS011;63979;55.644;37.734;2023-04-09T22:28:21;11.95;;;7.82;;
75408;SDS011;63979;55.644;37.734;2023-04-09T22:33:21;13.82;;;8.80;;
75408;SDS011;63979;55.644;37.734;2023-04-09T22:38:23;13.48;;;8.07;;
75408;SDS011;63979;55.644;37.734;2023-04-09T22:43:24;15.75;;;8.32;;
75408;SDS011;63979;55.644;37.734;2023-04-09T22:48:25;15.40;;;8.10;;
75408;SDS011;63979;55.644;37.734;2023-04-09T22:53:28;9.63;;;7.07;;
75408;SDS011;63979;55.644;37.734;2023-04-09T22:58:29;12.10;;;7.25;;
75408;SDS011;63979;55.644;37.734;2023-04-09T23:03:29;13.25;;;7.75;;
75408;SDS011;63979;55.644;37.734;2023-04-09T23:08:31;10.82;;;7.63;;
75408;SDS011;63979;55.644;37.734;2023-04-09T23:13:32;13.05;;;7.80;;
75408;SDS011;63979;55.644;37.734;2023-04-09T23:18:34;11.02;;;7.70;;
75408;SDS011;63979;55.644;37.734;2023-04-09T23:23:36;11.57;;;7.38;;
75408;SDS011;63979;55.644;37.734;2023-04-09T23:28:39;12.23;;;7.78;;
75408;SDS011;63979;55.644;37.734;2023-04-09T23:33:40;12.80;;;6.97;;
75408;SDS011;63979;55.644;37.734;2023-04-09T23:38:42;12.88;;;9.93;;
75408;SDS011;63979;55.644;37.734;2023-04-09T23:43:46;13.65;;;8.02;;
75408;SDS011;63979;55.644;37.734;2023-04-09T23:48:47;16.73;;;7.63;;
75408;SDS011;63979;55.644;37.734;2023-04-09T23:53:48;14.48;;;7.80;;
75408;SDS011;63979;55.644;37.734;2023-04-09T23:58:49;20.13;;;8.93;;
